Home > Products > Valid Products > TAF

000
FTUS45 KSLC 180305 AAB
TAFSLC
TAF AMD
KSLC 180305Z 1803/1906 15010KT P6SM FEW120
     FM181500 18012G19KT P6SM SCT100 BKN150
     FM190200 16012KT P6SM VCSH BKN090=



000
FTUS45 KSLC 180305 AAB
TAFSLC
TAF AMD
KSLC 180305Z 1803/1906 15010KT P6SM FEW120
     FM181500 18012G19KT P6SM SCT100 BKN150
     FM190200 16012KT P6SM VCSH BKN090=



000
FTUS45 KSLC 180052 AAA
TAFENV
TAF AMD
KENV 180052Z 1801/1824 24015G27KT P6SM VCSH BKN130
     FM180200 22008KT P6SM BKN120
     FM180600 VRB04KT P6SM FEW100 BKN120
     FM181500 15010KT P6SM BKN100
      AMD LTD TO CLD VIS AND WIND=



000
FTUS45 KSLC 180052 AAA
TAFENV
TAF AMD
KENV 180052Z 1801/1824 24015G27KT P6SM VCSH BKN130
     FM180200 22008KT P6SM BKN120
     FM180600 VRB04KT P6SM FEW100 BKN120
     FM181500 15010KT P6SM BKN100
      AMD LTD TO CLD VIS AND WIND=



000
FTUS45 KSLC 172336
TAFCDC
TAF
KCDC 172336Z 1800/1824 20009KT P6SM VCSH SCT090 BKN110
     FM180100 20007KT P6SM SCT090 BKN110
     FM180300 16007KT P6SM FEW080 SCT120
     FM181500 20011KT P6SM SCT100=



000
FTUS45 KSLC 172336
TAFSGU
TAF
KSGU 172336Z 1800/1824 24008KT P6SM VCSH SCT090 BKN130
     FM180100 24006KT P6SM SCT090 BKN130
     FM180400 13008KT P6SM FEW100 SCT150
     FM182000 24012G20KT P6SM SCT120
      AMD LTD TO CLD VIS AND WIND=



000
FTUS45 KSLC 172336
TAFPVU
TAF
KPVU 172336Z 1800/1824 VRB04KT P6SM FEW120
     FM181400 16008KT P6SM SCT100
      AMD LTD TO CLD VIS AND WIND=



000
FTUS45 KSLC 172336
TAFENV
TAF
KENV 172336Z 1800/1824 12008KT P6SM VCSH BKN130
     FM180200 22006KT P6SM BKN120
     FM180600 VRB04KT P6SM FEW100 BKN120
     FM181500 15010KT P6SM BKN100
      AMD LTD TO CLD VIS AND WIND=



000
FTUS45 KSLC 172336
TAFLGU
TAF
KLGU 172336Z 1800/1824 VRB04KT P6SM FEW120
     FM181500 20007KT P6SM SCT100
     FM182000 21011KT P6SM BKN100=



000
FTUS45 KSLC 172336
TAFBCE
TAF
KBCE 172336Z 1800/1824 14009KT P6SM SCT070 BKN130
     FM180200 27008KT P6SM FEW090 SCT120
     FM181500 15010KT P6SM SCT090
     FM182000 16011KT P6SM VCSH SCT080 BKN130=



000
FTUS45 KSLC 172336
TAFSLC
TAF
KSLC 172336Z 1800/1906 32006KT P6SM FEW120
     FM180300 15010KT P6SM FEW120
     FM181500 18012G19KT P6SM SCT100 BKN150
     FM190200 16012KT P6SM VCSH BKN090=



000
FTUS45 KSLC 172336
TAFOGD
TAF
KOGD 172336Z 1800/1824 32005KT P6SM FEW120
     FM180200 17010KT P6SM FEW120
     FM181600 18012G17KT P6SM SCT100 BKN150=



000
FTUS45 KSLC 172336
TAFCDC
TAF
KCDC 172336Z 1800/1824 20009KT P6SM VCSH SCT090 BKN110
     FM180100 20007KT P6SM SCT090 BKN110
     FM180300 16007KT P6SM FEW080 SCT120
     FM181500 20011KT P6SM SCT100=



000
FTUS45 KSLC 172336
TAFPVU
TAF
KPVU 172336Z 1800/1824 VRB04KT P6SM FEW120
     FM181400 16008KT P6SM SCT100
      AMD LTD TO CLD VIS AND WIND=



000
FTUS45 KSLC 172336
TAFLGU
TAF
KLGU 172336Z 1800/1824 VRB04KT P6SM FEW120
     FM181500 20007KT P6SM SCT100
     FM182000 21011KT P6SM BKN100=



000
FTUS45 KSLC 172336
TAFBCE
TAF
KBCE 172336Z 1800/1824 14009KT P6SM SCT070 BKN130
     FM180200 27008KT P6SM FEW090 SCT120
     FM181500 15010KT P6SM SCT090
     FM182000 16011KT P6SM VCSH SCT080 BKN130=



000
FTUS45 KSLC 172336
TAFENV
TAF
KENV 172336Z 1800/1824 12008KT P6SM VCSH BKN130
     FM180200 22006KT P6SM BKN120
     FM180600 VRB04KT P6SM FEW100 BKN120
     FM181500 15010KT P6SM BKN100
      AMD LTD TO CLD VIS AND WIND=



000
FTUS45 KSLC 172336
TAFOGD
TAF
KOGD 172336Z 1800/1824 32005KT P6SM FEW120
     FM180200 17010KT P6SM FEW120
     FM181600 18012G17KT P6SM SCT100 BKN150=



000
FTUS45 KSLC 172336
TAFSLC
TAF
KSLC 172336Z 1800/1906 32006KT P6SM FEW120
     FM180300 15010KT P6SM FEW120
     FM181500 18012G19KT P6SM SCT100 BKN150
     FM190200 16012KT P6SM VCSH BKN090=



000
FTUS45 KSLC 172336
TAFSGU
TAF
KSGU 172336Z 1800/1824 24008KT P6SM VCSH SCT090 BKN130
     FM180100 24006KT P6SM SCT090 BKN130
     FM180400 13008KT P6SM FEW100 SCT150
     FM182000 24012G20KT P6SM SCT120
      AMD LTD TO CLD VIS AND WIND=



000
FTUS45 KSLC 172245 AAB
TAFSGU
TAF AMD
KSGU 172245Z 1723/1818 12014G22KT P6SM -TSRA SCT060 OVC090CB
     FM172330 07006KT P6SM SCT090 BKN150
     FM180200 13008KT P6SM FEW100 BKN150
      AMD LTD TO CLD VIS AND WIND=



000
FTUS45 KSLC 172245 AAB
TAFSGU
TAF AMD
KSGU 172245Z 1723/1818 12014G22KT P6SM -TSRA SCT060 OVC090CB
     FM172330 07006KT P6SM SCT090 BKN150
     FM180200 13008KT P6SM FEW100 BKN150
      AMD LTD TO CLD VIS AND WIND=



000
FTUS45 KSLC 172212 AAA
TAFSGU
TAF AMD
KSGU 172212Z 1722/1818 05006KT P6SM VCTS SCT090CB BKN150
     FM172300 07006KT P6SM SCT090 BKN150
     FM180200 13008KT P6SM FEW100 BKN150
      AMD LTD TO CLD VIS AND WIND=



000
FTUS45 KSLC 172212 AAA
TAFSGU
TAF AMD
KSGU 172212Z 1722/1818 05006KT P6SM VCTS SCT090CB BKN150
     FM172300 07006KT P6SM SCT090 BKN150
     FM180200 13008KT P6SM FEW100 BKN150
      AMD LTD TO CLD VIS AND WIND=



000
FTUS45 KSLC 172157 AAD
TAFCDC
TAF AMD
KCDC 172157Z 1722/1818 09015G25KT P6SM -TSRA OVC080CB
     FM172300 10008G15KT P6SM SCT090 SCT130
     FM180200 15007KT P6SM FEW080 BKN120
     FM181500 20010KT P6SM SCT100=



000
FTUS45 KSLC 172157 AAD
TAFCDC
TAF AMD
KCDC 172157Z 1722/1818 09015G25KT P6SM -TSRA OVC080CB
     FM172300 10008G15KT P6SM SCT090 SCT130
     FM180200 15007KT P6SM FEW080 BKN120
     FM181500 20010KT P6SM SCT100=



000
FTUS45 KSLC 172120 AAC
TAFCDC
TAF AMD
KCDC 172120Z 1721/1818 23007KT P6SM -TSRA BKN090CB BKN130
      TEMPO 1721/1722 VRB15G25KT
     FM172200 22008KT P6SM SCT090 SCT130
     FM180200 15007KT P6SM FEW080 BKN120
     FM181500 20010KT P6SM SCT100=



000
FTUS45 KSLC 172054 AAB
TAFCDC
TAF AMD
KCDC 172054Z 1721/1818 25007KT P6SM VCTS SCT090CB SCT130
     FM172200 22008KT P6SM SCT090 SCT130
     FM180200 15007KT P6SM FEW080 BKN120
     FM181500 20010KT P6SM SCT100=



000
FTUS45 KSLC 172054 AAB
TAFCDC
TAF AMD
KCDC 172054Z 1721/1818 25007KT P6SM VCTS SCT090CB SCT130
     FM172200 22008KT P6SM SCT090 SCT130
     FM180200 15007KT P6SM FEW080 BKN120
     FM181500 20010KT P6SM SCT100=



000
FTUS45 KSLC 171959 AAB
TAFSLC
TAF AMD
KSLC 171959Z 1720/1824 15011KT P6SM SKC
     FM172100 32006KT P6SM SCT120
     FM180300 15010KT P6SM FEW120
     FM181500 18012G19KT P6SM SCT100=



000
FTUS45 KSLC 171959 AAB
TAFSLC
TAF AMD
KSLC 171959Z 1720/1824 15011KT P6SM SKC
     FM172100 32006KT P6SM SCT120
     FM180300 15010KT P6SM FEW120
     FM181500 18012G19KT P6SM SCT100=



000
FTUS45 KSLC 171957 AAA
TAFCDC
TAF AMD
KCDC 171957Z 1720/1818 22007KT P6SM VCTS SCT090CB SCT130
     FM172100 22008KT P6SM SCT090 SCT130
     FM180200 15007KT P6SM FEW080 BKN120
     FM181500 20010KT P6SM SCT100=



000
FTUS45 KSLC 171957 AAA
TAFCDC
TAF AMD
KCDC 171957Z 1720/1818 22007KT P6SM VCTS SCT090CB SCT130
     FM172100 22008KT P6SM SCT090 SCT130
     FM180200 15007KT P6SM FEW080 BKN120
     FM181500 20010KT P6SM SCT100=



000
FTUS45 KSLC 171904 AAA
TAFBCE
TAF AMD
KBCE 171904Z 1719/1818 17011G18KT P6SM SCT090
     FM172100 17010G16KT P6SM VCSH SCT090
     FM180300 27008KT P6SM FEW090 SCT120
     FM181500 15007KT P6SM SCT090=



000
FTUS45 KSLC 171904 AAA
TAFBCE
TAF AMD
KBCE 171904Z 1719/1818 17011G18KT P6SM SCT090
     FM172100 17010G16KT P6SM VCSH SCT090
     FM180300 27008KT P6SM FEW090 SCT120
     FM181500 15007KT P6SM SCT090=



000
FTUS45 KSLC 171724
TAFSGU
TAF
KSGU 171724Z 1718/1818 30006KT P6SM SCT150
     FM180200 13008KT P6SM FEW100 BKN150
      AMD LTD TO CLD VIS AND WIND=



000
FTUS45 KSLC 171724
TAFOGD
TAF
KOGD 171724Z 1718/1818 17007KT P6SM SKC
     FM172100 26006KT P6SM SCT120
     FM180200 17010KT P6SM FEW120
     FM181500 18012G17KT P6SM SCT100=



000
FTUS45 KSLC 171724
TAFSLC
TAF
KSLC 171724Z 1718/1824 15011KT P6SM SKC
     FM172000 32006KT P6SM SCT120
     FM180300 15010KT P6SM FEW120
     FM181500 18012G19KT P6SM SCT100=



000
FTUS45 KSLC 171724
TAFENV
TAF
KENV 171724Z 1718/1818 07006KT P6SM FEW120
     FM180200 22006KT P6SM SCT120
     FM180600 VRB04KT P6SM FEW100 BKN120
     FM181500 15010KT P6SM BKN100
      AMD LTD TO CLD VIS AND WIND=



000
FTUS45 KSLC 171724
TAFCDC
TAF
KCDC 171724Z 1718/1818 22008KT P6SM SCT100 SCT130
     FM180200 15007KT P6SM FEW080 BKN120
     FM181500 20010KT P6SM SCT100=



000
FTUS45 KSLC 171724
TAFLGU
TAF
KLGU 171724Z 1718/1818 VRB04KT P6SM FEW120
     FM181500 20007KT P6SM SCT100=



000
FTUS45 KSLC 171724
TAFBCE
TAF
KBCE 171724Z 1718/1818 15006KT P6SM SCT090
     FM172000 15006KT P6SM VCSH SCT090
     FM180300 27008KT P6SM FEW090 SCT120
     FM181500 15007KT P6SM SCT090=



000
FTUS45 KSLC 171724
TAFPVU
TAF
KPVU 171724Z 1718/1818 VRB04KT P6SM FEW120
     FM181400 15007KT P6SM SCT100
      AMD LTD TO CLD VIS AND WIND=



000
FTUS45 KSLC 171724
TAFOGD
TAF
KOGD 171724Z 1718/1818 17007KT P6SM SKC
     FM172100 26006KT P6SM SCT120
     FM180200 17010KT P6SM FEW120
     FM181500 18012G17KT P6SM SCT100=



000
FTUS45 KSLC 171724
TAFSGU
TAF
KSGU 171724Z 1718/1818 30006KT P6SM SCT150
     FM180200 13008KT P6SM FEW100 BKN150
      AMD LTD TO CLD VIS AND WIND=



000
FTUS45 KSLC 171724
TAFBCE
TAF
KBCE 171724Z 1718/1818 15006KT P6SM SCT090
     FM172000 15006KT P6SM VCSH SCT090
     FM180300 27008KT P6SM FEW090 SCT120
     FM181500 15007KT P6SM SCT090=



000
FTUS45 KSLC 171724
TAFPVU
TAF
KPVU 171724Z 1718/1818 VRB04KT P6SM FEW120
     FM181400 15007KT P6SM SCT100
      AMD LTD TO CLD VIS AND WIND=



000
FTUS45 KSLC 171724
TAFLGU
TAF
KLGU 171724Z 1718/1818 VRB04KT P6SM FEW120
     FM181500 20007KT P6SM SCT100=



000
FTUS45 KSLC 171724
TAFCDC
TAF
KCDC 171724Z 1718/1818 22008KT P6SM SCT100 SCT130
     FM180200 15007KT P6SM FEW080 BKN120
     FM181500 20010KT P6SM SCT100=



000
FTUS45 KSLC 171724
TAFSLC
TAF
KSLC 171724Z 1718/1824 15011KT P6SM SKC
     FM172000 32006KT P6SM SCT120
     FM180300 15010KT P6SM FEW120
     FM181500 18012G19KT P6SM SCT100=



000
FTUS45 KSLC 171724
TAFENV
TAF
KENV 171724Z 1718/1818 07006KT P6SM FEW120
     FM180200 22006KT P6SM SCT120
     FM180600 VRB04KT P6SM FEW100 BKN120
     FM181500 15010KT P6SM BKN100
      AMD LTD TO CLD VIS AND WIND=



000
FTUS45 KSLC 171456 AAA
TAFSLC
TAF AMD
KSLC 171456Z 1715/1818 15011KT P6SM SKC
     FM172000 32006KT P6SM FEW120
     FM180300 15008KT P6SM SCT120
     FM181500 18010G18KT P6SM FEW100 SCT120=



000
FTUS45 KSLC 171456 AAA
TAFSLC
TAF AMD
KSLC 171456Z 1715/1818 15011KT P6SM SKC
     FM172000 32006KT P6SM FEW120
     FM180300 15008KT P6SM SCT120
     FM181500 18010G18KT P6SM FEW100 SCT120=



000
FTUS45 KSLC 171120
TAFENV
TAF
KENV 171120Z 1712/1812 15005KT P6SM FEW120
     FM180200 29006KT P6SM BKN120
     FM180600 VRB04KT P6SM FEW100 BKN120
      AMD LTD TO CLD VIS AND WIND=



000
FTUS45 KSLC 171120
TAFSLC
TAF
KSLC 171120Z 1712/1818 15010KT P6SM SKC
     FM172000 32006KT P6SM FEW120
     FM180300 15008KT P6SM SCT120
     FM181500 18010G18KT P6SM FEW100 SCT120=



000
FTUS45 KSLC 171120
TAFLGU
TAF
KLGU 171120Z 1712/1812 VRB04KT P6SM FEW120=



000
FTUS45 KSLC 171120
TAFOGD
TAF
KOGD 171120Z 1712/1812 17009KT P6SM SKC
     FM172100 26006KT P6SM FEW120
     FM180200 17008KT P6SM SCT120=



000
FTUS45 KSLC 171120
TAFPVU
TAF
KPVU 171120Z 1712/1812 VRB04KT P6SM FEW120
      AMD LTD TO CLD VIS AND WIND=



000
FTUS45 KSLC 171120
TAFBCE
TAF
KBCE 171120Z 1712/1812 27006KT P6SM BKN120
     FM171600 15006KT P6SM SCT080
     FM180200 27008KT P6SM FEW080 SCT120=



000
FTUS45 KSLC 171120
TAFCDC
TAF
KCDC 171120Z 1712/1812 15007KT P6SM BKN150
     FM171500 22008KT P6SM SCT120 SCT150
     FM180200 15007KT P6SM FEW080 BKN120=



000
FTUS45 KSLC 171120
TAFSGU
TAF
KSGU 171120Z 1712/1812 VRB04KT P6SM BKN180
     FM171900 30006KT P6SM SCT150
     FM180200 13008KT P6SM FEW100 BKN150
      AMD LTD TO CLD VIS AND WIND=



000
FTUS45 KSLC 170904 AAA
TAFSLC
TAF AMD
KSLC 170904Z 1709/1812 15010KT P6SM SKC
     FM172000 32006KT P6SM FEW120
     FM180300 15008KT P6SM SCT120=



000
FTUS45 KSLC 170904 AAA
TAFSLC
TAF AMD
KSLC 170904Z 1709/1812 15010KT P6SM SKC
     FM172000 32006KT P6SM FEW120
     FM180300 15008KT P6SM SCT120=



000
FTUS45 KSLC 170520
TAFENV
TAF
KENV 170520Z 1706/1806 VRB04KT P6SM SKC
     FM170900 15005KT P6SM FEW120
     FM180200 29006KT P6SM BKN120
      AMD LTD TO CLD VIS AND WIND=



000
FTUS45 KSLC 170520
TAFENV
TAF
KENV 170520Z 1706/1806 VRB04KT P6SM SKC
     FM170900 15005KT P6SM FEW120
     FM180200 29006KT P6SM BKN120
      AMD LTD TO CLD VIS AND WIND=



000
FTUS45 KSLC 170520
TAFSLC
TAF
KSLC 170520Z 1706/1812 15006KT P6SM SKC
     FM172000 32006KT P6SM FEW120
     FM180300 15008KT P6SM SCT120=



000
FTUS45 KSLC 170520
TAFLGU
TAF
KLGU 170520Z 1706/1806 VRB04KT P6SM FEW120=



000
FTUS45 KSLC 170520
TAFOGD
TAF
KOGD 170520Z 1706/1806 17009KT P6SM SKC
     FM172100 26006KT P6SM FEW120
     FM180200 17008KT P6SM SCT120=



000
FTUS45 KSLC 170520
TAFCDC
TAF
KCDC 170520Z 1706/1806 15007KT P6SM SKC
     FM171500 22008KT P6SM SCT120
     FM180200 15007KT P6SM FEW080 BKN120=



000
FTUS45 KSLC 170520
TAFSLC
TAF
KSLC 170520Z 1706/1812 15006KT P6SM SKC
     FM172000 32006KT P6SM FEW120
     FM180300 15008KT P6SM SCT120=



000
FTUS45 KSLC 170520
TAFBCE
TAF
KBCE 170520Z 1706/1806 27006KT P6SM FEW090 FEW120
     FM171600 15006KT P6SM SCT080
     FM180200 27008KT P6SM FEW080 SCT120=



000
FTUS45 KSLC 170520
TAFSGU
TAF
KSGU 170520Z 1706/1806 VRB04KT P6SM FEW120 FEW200
      TEMPO 1706/1708 20012KT
     FM171900 30006KT P6SM SCT150
     FM180200 13008KT P6SM FEW100 SCT150
      AMD LTD TO CLD VIS AND WIND=



000
FTUS45 KSLC 170520
TAFPVU
TAF
KPVU 170520Z 1706/1806 VRB04KT P6SM FEW120
      AMD LTD TO CLD VIS AND WIND=



000
FTUS45 KSLC 170520
TAFCDC
TAF
KCDC 170520Z 1706/1806 15007KT P6SM SKC
     FM171500 22008KT P6SM SCT120
     FM180200 15007KT P6SM FEW080 BKN120=



000
FTUS45 KSLC 170520
TAFPVU
TAF
KPVU 170520Z 1706/1806 VRB04KT P6SM FEW120
      AMD LTD TO CLD VIS AND WIND=



000
FTUS45 KSLC 170520
TAFSGU
TAF
KSGU 170520Z 1706/1806 VRB04KT P6SM FEW120 FEW200
      TEMPO 1706/1708 20012KT
     FM171900 30006KT P6SM SCT150
     FM180200 13008KT P6SM FEW100 SCT150
      AMD LTD TO CLD VIS AND WIND=



000
FTUS45 KSLC 170520
TAFLGU
TAF
KLGU 170520Z 1706/1806 VRB04KT P6SM FEW120=



000
FTUS45 KSLC 170520
TAFBCE
TAF
KBCE 170520Z 1706/1806 27006KT P6SM FEW090 FEW120
     FM171600 15006KT P6SM SCT080
     FM180200 27008KT P6SM FEW080 SCT120=



000
FTUS45 KSLC 170520
TAFOGD
TAF
KOGD 170520Z 1706/1806 17009KT P6SM SKC
     FM172100 26006KT P6SM FEW120
     FM180200 17008KT P6SM SCT120=



000
FTUS45 KSLC 170256 AAA
TAFSLC
TAF AMD
KSLC 170256Z 1703/1806 15006KT P6SM SKC
     FM172000 32006KT P6SM FEW120
     FM180300 15008KT P6SM FEW120=



000
FTUS45 KSLC 170256 AAA
TAFSLC
TAF AMD
KSLC 170256Z 1703/1806 15006KT P6SM SKC
     FM172000 32006KT P6SM FEW120
     FM180300 15008KT P6SM FEW120=



000
FTUS45 KSLC 162333
TAFOGD
TAF
KOGD 162333Z 1700/1724 31005KT P6SM FEW120
     FM170300 16007KT P6SM SKC
     FM172100 26006KT P6SM FEW120=



000
FTUS45 KSLC 162333
TAFSGU
TAF
KSGU 162333Z 1700/1724 32007KT P6SM SKC
     FM170300 VRB04KT P6SM FEW200
     FM171900 30006KT P6SM SCT150
      AMD LTD TO CLD VIS AND WIND=



000
FTUS45 KSLC 162333
TAFPVU
TAF
KPVU 162333Z 1700/1724 VRB04KT P6SM FEW120
      AMD LTD TO CLD VIS AND WIND=



000
FTUS45 KSLC 162333
TAFBCE
TAF
KBCE 162333Z 1700/1724 15006KT P6SM SCT110
     FM170300 27006KT P6SM FEW110
     FM171600 15006KT P6SM SCT080=



000
FTUS45 KSLC 162333
TAFCDC
TAF
KCDC 162333Z 1700/1724 22006KT P6SM FEW110
     FM170300 15004KT P6SM SKC
     FM171500 22008KT P6SM SCT120=



000
FTUS45 KSLC 162333
TAFSLC
TAF
KSLC 162333Z 1700/1806 33005KT P6SM FEW120
     FM170300 15006KT P6SM SKC
     FM172000 32006KT P6SM FEW120
     FM180300 15008KT P6SM FEW120=



000
FTUS45 KSLC 162333
TAFENV
TAF
KENV 162333Z 1700/1724 11005KT P6SM FEW120
     FM170300 VRB04KT P6SM SKC
     FM170900 15005KT P6SM SCT120
      AMD LTD TO CLD VIS AND WIND=



000
FTUS45 KSLC 162333
TAFCDC
TAF
KCDC 162333Z 1700/1724 22006KT P6SM FEW110
     FM170300 15004KT P6SM SKC
     FM171500 22008KT P6SM SCT120=



000
FTUS45 KSLC 162333
TAFOGD
TAF
KOGD 162333Z 1700/1724 31005KT P6SM FEW120
     FM170300 16007KT P6SM SKC
     FM172100 26006KT P6SM FEW120=



000
FTUS45 KSLC 162333
TAFPVU
TAF
KPVU 162333Z 1700/1724 VRB04KT P6SM FEW120
      AMD LTD TO CLD VIS AND WIND=



000
FTUS45 KSLC 162333
TAFENV
TAF
KENV 162333Z 1700/1724 11005KT P6SM FEW120
     FM170300 VRB04KT P6SM SKC
     FM170900 15005KT P6SM SCT120
      AMD LTD TO CLD VIS AND WIND=



000
FTUS45 KSLC 162333
TAFSGU
TAF
KSGU 162333Z 1700/1724 32007KT P6SM SKC
     FM170300 VRB04KT P6SM FEW200
     FM171900 30006KT P6SM SCT150
      AMD LTD TO CLD VIS AND WIND=



000
FTUS45 KSLC 162333
TAFLGU
TAF
KLGU 162333Z 1700/1724 VRB04KT P6SM FEW120=



000
FTUS45 KSLC 162333
TAFBCE
TAF
KBCE 162333Z 1700/1724 15006KT P6SM SCT110
     FM170300 27006KT P6SM FEW110
     FM171600 15006KT P6SM SCT080=



000
FTUS45 KSLC 162333
TAFLGU
TAF
KLGU 162333Z 1700/1724 VRB04KT P6SM FEW120=



000
FTUS45 KSLC 162333
TAFSLC
TAF
KSLC 162333Z 1700/1806 33005KT P6SM FEW120
     FM170300 15006KT P6SM SKC
     FM172000 32006KT P6SM FEW120
     FM180300 15008KT P6SM FEW120=



000
FTUS45 KSLC 162043 AAC
TAFSLC
TAF AMD
KSLC 162043Z 1621/1724 18010KT P6SM FEW120
     FM162230 31006KT P6SM FEW120
     FM170300 15006KT P6SM FEW120
     FM172000 32006KT P6SM FEW100=



000
FTUS45 KSLC 162043 AAC
TAFSLC
TAF AMD
KSLC 162043Z 1621/1724 18010KT P6SM FEW120
     FM162230 31006KT P6SM FEW120
     FM170300 15006KT P6SM FEW120
     FM172000 32006KT P6SM FEW100=



000
FTUS45 KSLC 161947 AAB
TAFSLC
TAF AMD
KSLC 161947Z 1620/1724 18010G15KT P6SM FEW120
     FM162100 31006KT P6SM FEW120
     FM170300 15006KT P6SM FEW120
     FM172000 32006KT P6SM FEW100=



000
FTUS45 KSLC 161947 AAB
TAFSLC
TAF AMD
KSLC 161947Z 1620/1724 18010G15KT P6SM FEW120
     FM162100 31006KT P6SM FEW120
     FM170300 15006KT P6SM FEW120
     FM172000 32006KT P6SM FEW100=



000
FTUS45 KSLC 161722
TAFPVU
TAF
KPVU 161722Z 1618/1718 VRB04KT P6SM FEW120
      AMD LTD TO CLD VIS AND WIND=



000
FTUS45 KSLC 161722
TAFSLC
TAF
KSLC 161722Z 1618/1724 15009KT P6SM FEW120
     FM162000 31006KT P6SM FEW120
     FM170300 15006KT P6SM FEW120
     FM172000 32006KT P6SM FEW100=



000
FTUS45 KSLC 161722
TAFENV
TAF
KENV 161722Z 1618/1718 13005KT P6SM FEW120
     FM170300 VRB04KT P6SM FEW120
     FM171500 07005KT P6SM SCT120
      AMD LTD TO CLD VIS AND WIND=



000
FTUS45 KSLC 161722
TAFOGD
TAF
KOGD 161722Z 1618/1718 18006KT P6SM FEW120
     FM162000 26006KT P6SM FEW120
     FM170300 16007KT P6SM SKC=



000
FTUS45 KSLC 161722
TAFLGU
TAF
KLGU 161722Z 1618/1718 VRB04KT P6SM FEW120=



000
FTUS45 KSLC 161722
TAFSGU
TAF
KSGU 161722Z 1618/1718 VRB04KT P6SM SKC
     FM162200 25007KT P6SM SKC
     FM170300 VRB04KT P6SM SKC
      AMD LTD TO CLD VIS AND WIND=



000
FTUS45 KSLC 161722
TAFBCE
TAF
KBCE 161722Z 1618/1718 15006KT P6SM SCT110
     FM170300 27006KT P6SM FEW110
     FM171500 15006KT P6SM SCT080=



000
FTUS45 KSLC 161722
TAFLGU
TAF
KLGU 161722Z 1618/1718 VRB04KT P6SM FEW120=



000
FTUS45 KSLC 161722
TAFENV
TAF
KENV 161722Z 1618/1718 13005KT P6SM FEW120
     FM170300 VRB04KT P6SM FEW120
     FM171500 07005KT P6SM SCT120
      AMD LTD TO CLD VIS AND WIND=



000
FTUS45 KSLC 161722
TAFBCE
TAF
KBCE 161722Z 1618/1718 15006KT P6SM SCT110
     FM170300 27006KT P6SM FEW110
     FM171500 15006KT P6SM SCT080=



000
FTUS45 KSLC 161722
TAFCDC
TAF
KCDC 161722Z 1618/1718 22010KT P6SM FEW120
     FM170300 15004KT P6SM SKC
     FM171500 22008KT P6SM SCT120=



000
FTUS45 KSLC 161722
TAFSLC
TAF
KSLC 161722Z 1618/1724 15009KT P6SM FEW120
     FM162000 31006KT P6SM FEW120
     FM170300 15006KT P6SM FEW120
     FM172000 32006KT P6SM FEW100=



000
FTUS45 KSLC 161722
TAFCDC
TAF
KCDC 161722Z 1618/1718 22010KT P6SM FEW120
     FM170300 15004KT P6SM SKC
     FM171500 22008KT P6SM SCT120=



000
FTUS45 KSLC 161722
TAFPVU
TAF
KPVU 161722Z 1618/1718 VRB04KT P6SM FEW120
      AMD LTD TO CLD VIS AND WIND=



000
FTUS45 KSLC 161722
TAFSGU
TAF
KSGU 161722Z 1618/1718 VRB04KT P6SM SKC
     FM162200 25007KT P6SM SKC
     FM170300 VRB04KT P6SM SKC
      AMD LTD TO CLD VIS AND WIND=



000
FTUS45 KSLC 161722
TAFOGD
TAF
KOGD 161722Z 1618/1718 18006KT P6SM FEW120
     FM162000 26006KT P6SM FEW120
     FM170300 16007KT P6SM SKC=



000
FTUS45 KSLC 161613 AAB
TAFSLC
TAF AMD
KSLC 161613Z 1616/1718 16010KT P6SM VCSH FEW090 SCT120
      TEMPO 1616/1617 07007KT FEW060 SCT120
     FM162000 31006KT P6SM FEW120
     FM170300 15006KT P6SM FEW120=



000
FTUS45 KSLC 161613 AAB
TAFSLC
TAF AMD
KSLC 161613Z 1616/1718 16010KT P6SM VCSH FEW090 SCT120
      TEMPO 1616/1617 07007KT FEW060 SCT120
     FM162000 31006KT P6SM FEW120
     FM170300 15006KT P6SM FEW120=



000
FTUS45 KSLC 161510 AAA
TAFOGD
TAF AMD
KOGD 161510Z 1615/1712 18009KT P6SM VCTS FEW100CB SCT120
      TEMPO 1615/1617 VRB10G20KT P6SM SHRA FEW080 BKN120
     FM161700 18009KT P6SM FEW120
     FM162000 26006KT P6SM FEW120
     FM170300 16007KT P6SM SKC=



000
FTUS45 KSLC 161510 AAA
TAFOGD
TAF AMD
KOGD 161510Z 1615/1712 18009KT P6SM VCTS FEW100CB SCT120
      TEMPO 1615/1617 VRB10G20KT P6SM SHRA FEW080 BKN120
     FM161700 18009KT P6SM FEW120
     FM162000 26006KT P6SM FEW120
     FM170300 16007KT P6SM SKC=



000
FTUS45 KSLC 161503 AAA
TAFSLC
TAF AMD
KSLC 161503Z 1615/1718 16010KT P6SM VCSH FEW090 SCT120
     FM162000 31006KT P6SM FEW120
     FM170300 15006KT P6SM FEW120=



000
FTUS45 KSLC 161503 AAA
TAFSLC
TAF AMD
KSLC 161503Z 1615/1718 16010KT P6SM VCSH FEW090 SCT120
     FM162000 31006KT P6SM FEW120
     FM170300 15006KT P6SM FEW120=



000
FTUS45 KSLC 161120
TAFCDC
TAF
KCDC 161120Z 1612/1712 22005KT P6SM FEW100
     FM161900 22010KT P6SM FEW120
     FM170300 VRB04KT P6SM SKC=



000
FTUS45 KSLC 161120
TAFPVU
TAF
KPVU 161120Z 1612/1712 VRB04KT P6SM FEW130
      AMD LTD TO CLD VIS AND WIND=



000
FTUS45 KSLC 161120
TAFENV
TAF
KENV 161120Z 1612/1712 14005KT P6SM FEW130
     FM161300 05005KT P6SM FEW130
     FM161900 13005KT P6SM SCT120
      AMD LTD TO CLD VIS AND WIND=



000
FTUS45 KSLC 161120
TAFSLC
TAF
KSLC 161120Z 1612/1718 16010KT P6SM FEW120
     FM162000 31006KT P6SM FEW120
     FM170300 15006KT P6SM FEW120=



000
FTUS45 KSLC 161120
TAFOGD
TAF
KOGD 161120Z 1612/1712 18009KT P6SM FEW130
     FM162000 26006KT P6SM FEW120
     FM170300 16007KT P6SM SKC=



000
FTUS45 KSLC 161120
TAFLGU
TAF
KLGU 161120Z 1612/1712 VRB04KT P6SM FEW130=



000
FTUS45 KSLC 161120
TAFPVU
TAF
KPVU 161120Z 1612/1712 VRB04KT P6SM FEW130
      AMD LTD TO CLD VIS AND WIND=



000
FTUS45 KSLC 161120
TAFLGU
TAF
KLGU 161120Z 1612/1712 VRB04KT P6SM FEW130=



000
FTUS45 KSLC 161120
TAFSGU
TAF
KSGU 161120Z 1612/1712 VRB04KT P6SM SKC
     FM162200 25007KT P6SM SKC
     FM170300 VRB04KT P6SM SKC
      AMD LTD TO CLD VIS AND WIND=



000
FTUS45 KSLC 161120
TAFOGD
TAF
KOGD 161120Z 1612/1712 18009KT P6SM FEW130
     FM162000 26006KT P6SM FEW120
     FM170300 16007KT P6SM SKC=



000
FTUS45 KSLC 161120
TAFSGU
TAF
KSGU 161120Z 1612/1712 VRB04KT P6SM SKC
     FM162200 25007KT P6SM SKC
     FM170300 VRB04KT P6SM SKC
      AMD LTD TO CLD VIS AND WIND=



000
FTUS45 KSLC 161120
TAFCDC
TAF
KCDC 161120Z 1612/1712 22005KT P6SM FEW100
     FM161900 22010KT P6SM FEW120
     FM170300 VRB04KT P6SM SKC=



000
FTUS45 KSLC 161120
TAFSLC
TAF
KSLC 161120Z 1612/1718 16010KT P6SM FEW120
     FM162000 31006KT P6SM FEW120
     FM170300 15006KT P6SM FEW120=



000
FTUS45 KSLC 161120
TAFBCE
TAF
KBCE 161120Z 1612/1712 27006KT P6SM SCT120
     FM161700 15006KT P6SM SCT110
     FM170300 27006KT P6SM FEW110=



000
FTUS45 KSLC 161120
TAFBCE
TAF
KBCE 161120Z 1612/1712 27006KT P6SM SCT120
     FM161700 15006KT P6SM SCT110
     FM170300 27006KT P6SM FEW110=



000
FTUS45 KSLC 161120
TAFENV
TAF
KENV 161120Z 1612/1712 14005KT P6SM FEW130
     FM161300 05005KT P6SM FEW130
     FM161900 13005KT P6SM SCT120
      AMD LTD TO CLD VIS AND WIND=



000
FTUS45 KSLC 160905 AAA
TAFSLC
TAF AMD
KSLC 160905Z 1609/1712 16007KT P6SM FEW120
     FM162000 31006KT P6SM FEW120
     FM170300 15006KT P6SM FEW120=



000
FTUS45 KSLC 160905 AAA
TAFSLC
TAF AMD
KSLC 160905Z 1609/1712 16007KT P6SM FEW120
     FM162000 31006KT P6SM FEW120
     FM170300 15006KT P6SM FEW120=



000
FTUS45 KSLC 160520
TAFSLC
TAF
KSLC 160520Z 1606/1712 16007KT P6SM FEW130
     FM162000 31006KT P6SM FEW120
     FM170300 15006KT P6SM FEW120=



000
FTUS45 KSLC 160520
TAFOGD
TAF
KOGD 160520Z 1606/1706 17009KT P6SM FEW130
     FM162000 26006KT P6SM FEW120
     FM170300 16007KT P6SM SKC=



000
FTUS45 KSLC 160520
TAFPVU
TAF
KPVU 160520Z 1606/1706 VRB04KT P6SM FEW130
      AMD LTD TO CLD VIS AND WIND=



000
FTUS45 KSLC 160520
TAFSLC
TAF
KSLC 160520Z 1606/1712 16007KT P6SM FEW130
     FM162000 31006KT P6SM FEW120
     FM170300 15006KT P6SM FEW120=



000
FTUS45 KSLC 160520
TAFBCE
TAF
KBCE 160520Z 1606/1706 27006KT P6SM SCT120
     FM161700 15006KT P6SM SCT110
     FM170300 27006KT P6SM FEW110=



000
FTUS45 KSLC 160520
TAFOGD
TAF
KOGD 160520Z 1606/1706 17009KT P6SM FEW130
     FM162000 26006KT P6SM FEW120
     FM170300 16007KT P6SM SKC=



000
FTUS45 KSLC 160520
TAFSGU
TAF
KSGU 160520Z 1606/1706 VRB04KT P6SM SKC
     FM162200 25007KT P6SM SKC
     FM170300 VRB04KT P6SM SKC
      AMD LTD TO CLD VIS AND WIND=



000
FTUS45 KSLC 160520
TAFCDC
TAF
KCDC 160520Z 1606/1706 16005KT P6SM FEW100
     FM161900 22007KT P6SM FEW120
     FM170300 VRB04KT P6SM SKC=



000
FTUS45 KSLC 160520
TAFENV
TAF
KENV 160520Z 1606/1706 14005KT P6SM FEW130
     FM161300 05005KT P6SM FEW130
     FM161900 13005KT P6SM SCT120
      AMD LTD TO CLD VIS AND WIND=



000
FTUS45 KSLC 160520
TAFLGU
TAF
KLGU 160520Z 1606/1706 VRB04KT P6SM FEW130=



000
FTUS45 KSLC 160520
TAFSGU
TAF
KSGU 160520Z 1606/1706 VRB04KT P6SM SKC
     FM162200 25007KT P6SM SKC
     FM170300 VRB04KT P6SM SKC
      AMD LTD TO CLD VIS AND WIND=



000
FTUS45 KSLC 160520
TAFPVU
TAF
KPVU 160520Z 1606/1706 VRB04KT P6SM FEW130
      AMD LTD TO CLD VIS AND WIND=



000
FTUS45 KSLC 160520
TAFBCE
TAF
KBCE 160520Z 1606/1706 27006KT P6SM SCT120
     FM161700 15006KT P6SM SCT110
     FM170300 27006KT P6SM FEW110=



000
FTUS45 KSLC 160520
TAFLGU
TAF
KLGU 160520Z 1606/1706 VRB04KT P6SM FEW130=



000
FTUS45 KSLC 160520
TAFCDC
TAF
KCDC 160520Z 1606/1706 16005KT P6SM FEW100
     FM161900 22007KT P6SM FEW120
     FM170300 VRB04KT P6SM SKC=



000
FTUS45 KSLC 160520
TAFENV
TAF
KENV 160520Z 1606/1706 14005KT P6SM FEW130
     FM161300 05005KT P6SM FEW130
     FM161900 13005KT P6SM SCT120
      AMD LTD TO CLD VIS AND WIND=



000
FTUS45 KSLC 160253 AAA
TAFSLC
TAF AMD
KSLC 160253Z 1603/1706 15006KT P6SM FEW130
     FM162000 31006KT P6SM FEW120
     FM170300 15006KT P6SM FEW120=



000
FTUS45 KSLC 160253 AAA
TAFSLC
TAF AMD
KSLC 160253Z 1603/1706 15006KT P6SM FEW130
     FM162000 31006KT P6SM FEW120
     FM170300 15006KT P6SM FEW120=



000
FTUS45 KSLC 152326
TAFLGU
TAF
KLGU 152326Z 1600/1624 18007KT P6SM FEW130
     FM160200 VRB04KT P6SM FEW130=



000
FTUS45 KSLC 152326
TAFENV
TAF
KENV 152326Z 1600/1624 14005KT P6SM FEW130
     FM161300 05005KT P6SM FEW130
     FM161900 13005KT P6SM SCT120
      AMD LTD TO CLD VIS AND WIND=



000
FTUS45 KSLC 152326
TAFOGD
TAF
KOGD 152326Z 1600/1624 26007KT P6SM FEW130
     FM160300 17006KT P6SM FEW130
     FM162000 26006KT P6SM FEW120=



000
FTUS45 KSLC 152326
TAFSLC
TAF
KSLC 152326Z 1600/1706 34006KT P6SM FEW090 FEW130
     FM160300 15006KT P6SM FEW130
     FM162000 31006KT P6SM FEW120
     FM170300 15006KT P6SM FEW120=



000
FTUS45 KSLC 152326
TAFPVU
TAF
KPVU 152326Z 1600/1624 VRB04KT P6SM FEW130
      AMD LTD TO CLD VIS AND WIND=



000
FTUS45 KSLC 152326
TAFCDC
TAF
KCDC 152326Z 1600/1624 28006KT P6SM SCT100
     FM160300 16005KT P6SM FEW100
     FM161900 22007KT P6SM FEW120=



000
FTUS45 KSLC 152326
TAFSGU
TAF
KSGU 152326Z 1600/1624 32005KT P6SM SKC
     FM160200 VRB04KT P6SM SKC
      AMD LTD TO CLD VIS AND WIND=



000
FTUS45 KSLC 152326
TAFBCE
TAF
KBCE 152326Z 1600/1624 VRB04KT P6SM SCT120
     FM160200 27006KT P6SM SCT120
     FM161700 15006KT P6SM SCT110=



000
FTUS45 KSLC 152326
TAFCDC
TAF
KCDC 152326Z 1600/1624 28006KT P6SM SCT100
     FM160300 16005KT P6SM FEW100
     FM161900 22007KT P6SM FEW120=



000
FTUS45 KSLC 152326
TAFOGD
TAF
KOGD 152326Z 1600/1624 26007KT P6SM FEW130
     FM160300 17006KT P6SM FEW130
     FM162000 26006KT P6SM FEW120=



000
FTUS45 KSLC 152326
TAFSLC
TAF
KSLC 152326Z 1600/1706 34006KT P6SM FEW090 FEW130
     FM160300 15006KT P6SM FEW130
     FM162000 31006KT P6SM FEW120
     FM170300 15006KT P6SM FEW120=



000
FTUS45 KSLC 152326
TAFSGU
TAF
KSGU 152326Z 1600/1624 32005KT P6SM SKC
     FM160200 VRB04KT P6SM SKC
      AMD LTD TO CLD VIS AND WIND=



000
FTUS45 KSLC 152326
TAFENV
TAF
KENV 152326Z 1600/1624 14005KT P6SM FEW130
     FM161300 05005KT P6SM FEW130
     FM161900 13005KT P6SM SCT120
      AMD LTD TO CLD VIS AND WIND=



000
FTUS45 KSLC 152326
TAFLGU
TAF
KLGU 152326Z 1600/1624 18007KT P6SM FEW130
     FM160200 VRB04KT P6SM FEW130=



000
FTUS45 KSLC 152326
TAFPVU
TAF
KPVU 152326Z 1600/1624 VRB04KT P6SM FEW130
      AMD LTD TO CLD VIS AND WIND=



000
FTUS45 KSLC 152326
TAFBCE
TAF
KBCE 152326Z 1600/1624 VRB04KT P6SM SCT120
     FM160200 27006KT P6SM SCT120
     FM161700 15006KT P6SM SCT110=



000
FTUS45 KSLC 152106 AAA
TAFSLC
TAF AMD
KSLC 152106Z 1521/1624 33009KT P6SM FEW090 SCT120
     FM160300 15006KT P6SM FEW120
     FM162000 31006KT P6SM SCT120=



000
FTUS45 KSLC 152106 AAA
TAFSLC
TAF AMD
KSLC 152106Z 1521/1624 33009KT P6SM FEW090 SCT120
     FM160300 15006KT P6SM FEW120
     FM162000 31006KT P6SM SCT120=



000
FTUS45 KSLC 151735
TAFSLC
TAF
KSLC 151735Z 1518/1624 14008KT P6SM FEW080 SCT120
     FM151900 33008KT P6SM SCT120
     FM160300 15006KT P6SM FEW120
     FM162000 31006KT P6SM SCT120=



000
FTUS45 KSLC 151735
TAFOGD
TAF
KOGD 151735Z 1518/1618 17006KT P6SM SCT120
     FM152000 26007KT P6SM SCT120
     FM160300 17006KT P6SM FEW120=



000
FTUS45 KSLC 151735
TAFSGU
TAF
KSGU 151735Z 1518/1618 VRB05KT P6SM FEW120
      AMD LTD TO CLD VIS AND WIND=



000
FTUS45 KSLC 151735
TAFLGU
TAF
KLGU 151735Z 1518/1618 VRB05KT P6SM SCT120=



000
FTUS45 KSLC 151735
TAFCDC
TAF
KCDC 151735Z 1518/1618 VRB04KT P6SM SKC
     FM151900 24008KT P6SM SCT100
     FM160300 16005KT P6SM FEW100=



000
FTUS45 KSLC 151735
TAFPVU
TAF
KPVU 151735Z 1518/1618 VRB04KT P6SM SCT120
      AMD LTD TO CLD VIS AND WIND=



000
FTUS45 KSLC 151735
TAFENV
TAF
KENV 151735Z 1518/1618 07005KT P6SM SCT130
     FM152000 11005KT P6SM SCT130
     FM161500 05005KT P6SM SCT130
      AMD LTD TO CLD VIS AND WIND=



000
FTUS45 KSLC 151735
TAFBCE
TAF
KBCE 151735Z 1518/1618 15005KT P6SM SCT090
     FM152100 15006KT P6SM VCSH BKN090
     FM160100 27006KT P6SM SCT090=



000
FTUS45 KSLC 151735
TAFSGU
TAF
KSGU 151735Z 1518/1618 VRB05KT P6SM FEW120
      AMD LTD TO CLD VIS AND WIND=



000
FTUS45 KSLC 151735
TAFPVU
TAF
KPVU 151735Z 1518/1618 VRB04KT P6SM SCT120
      AMD LTD TO CLD VIS AND WIND=



000
FTUS45 KSLC 151735
TAFLGU
TAF
KLGU 151735Z 1518/1618 VRB05KT P6SM SCT120=



000
FTUS45 KSLC 151735
TAFENV
TAF
KENV 151735Z 1518/1618 07005KT P6SM SCT130
     FM152000 11005KT P6SM SCT130
     FM161500 05005KT P6SM SCT130
      AMD LTD TO CLD VIS AND WIND=



000
FTUS45 KSLC 151735
TAFBCE
TAF
KBCE 151735Z 1518/1618 15005KT P6SM SCT090
     FM152100 15006KT P6SM VCSH BKN090
     FM160100 27006KT P6SM SCT090=



000
FTUS45 KSLC 151735
TAFCDC
TAF
KCDC 151735Z 1518/1618 VRB04KT P6SM SKC
     FM151900 24008KT P6SM SCT100
     FM160300 16005KT P6SM FEW100=



000
FTUS45 KSLC 151735
TAFOGD
TAF
KOGD 151735Z 1518/1618 17006KT P6SM SCT120
     FM152000 26007KT P6SM SCT120
     FM160300 17006KT P6SM FEW120=



000
FTUS45 KSLC 151735
TAFSLC
TAF
KSLC 151735Z 1518/1624 14008KT P6SM FEW080 SCT120
     FM151900 33008KT P6SM SCT120
     FM160300 15006KT P6SM FEW120
     FM162000 31006KT P6SM SCT120=



000
FTUS45 KSLC 151500 AAB
TAFSLC
TAF AMD
KSLC 151500Z 1515/1618 14008KT P6SM FEW080 SCT120
     FM151900 32008KT P6SM FEW120
     FM160300 15006KT P6SM SKC=



000
FTUS45 KSLC 151500 AAB
TAFSLC
TAF AMD
KSLC 151500Z 1515/1618 14008KT P6SM FEW080 SCT120
     FM151900 32008KT P6SM FEW120
     FM160300 15006KT P6SM SKC=



000
FTUS45 KSLC 151347 AAA
TAFLGU
TAF AMD
KLGU 151347Z 1514/1612 34010KT P6SM VCSH SCT130
     FM151430 VRB05KT P6SM SCT130=



000
FTUS45 KSLC 151120
TAFENV
TAF
KENV 151120Z 1512/1612 VRB04KT P6SM SCT150
     FM151500 12005KT P6SM FEW150
      AMD LTD TO CLD VIS AND WIND=



000
FTUS45 KSLC 151120
TAFSGU
TAF
KSGU 151120Z 1512/1612 VRB05KT P6SM SKC
      AMD LTD TO CLD VIS AND WIND=



000
FTUS45 KSLC 151120
TAFSLC
TAF
KSLC 151120Z 1512/1618 15008KT P6SM SCT120
     FM152000 32008KT P6SM FEW120
     FM160300 15006KT P6SM SKC=



000
FTUS45 KSLC 151120
TAFOGD
TAF
KOGD 151120Z 1512/1612 17006KT P6SM SCT130
     FM152000 26007KT P6SM FEW130
     FM160300 17006KT P6SM SKC=



000
FTUS45 KSLC 151120
TAFCDC
TAF
KCDC 151120Z 1512/1612 VRB04KT P6SM SKC
     FM151800 24008KT P6SM FEW120
     FM160000 18005KT P6SM SKC=



000
FTUS45 KSLC 151120
TAFPVU
TAF
KPVU 151120Z 1512/1612 VRB04KT P6SM FEW150
      AMD LTD TO CLD VIS AND WIND=



000
FTUS45 KSLC 151120
TAFBCE
TAF
KBCE 151120Z 1512/1612 27005KT P6SM FEW090=



000
FTUS45 KSLC 151120
TAFCDC
TAF
KCDC 151120Z 1512/1612 VRB04KT P6SM SKC
     FM151800 24008KT P6SM FEW120
     FM160000 18005KT P6SM SKC=



000
FTUS45 KSLC 151120
TAFLGU
TAF
KLGU 151120Z 1512/1612 VRB03KT P6SM SCT130=



000
FTUS45 KSLC 151120
TAFLGU
TAF
KLGU 151120Z 1512/1612 VRB03KT P6SM SCT130=



000
FTUS45 KSLC 151120
TAFOGD
TAF
KOGD 151120Z 1512/1612 17006KT P6SM SCT130
     FM152000 26007KT P6SM FEW130
     FM160300 17006KT P6SM SKC=



000
FTUS45 KSLC 151120
TAFPVU
TAF
KPVU 151120Z 1512/1612 VRB04KT P6SM FEW150
      AMD LTD TO CLD VIS AND WIND=



000
FTUS45 KSLC 151120
TAFENV
TAF
KENV 151120Z 1512/1612 VRB04KT P6SM SCT150
     FM151500 12005KT P6SM FEW150
      AMD LTD TO CLD VIS AND WIND=



000
FTUS45 KSLC 151120
TAFBCE
TAF
KBCE 151120Z 1512/1612 27005KT P6SM FEW090=



000
FTUS45 KSLC 151120
TAFSGU
TAF
KSGU 151120Z 1512/1612 VRB05KT P6SM SKC
      AMD LTD TO CLD VIS AND WIND=



000
FTUS45 KSLC 151120
TAFSLC
TAF
KSLC 151120Z 1512/1618 15008KT P6SM SCT120
     FM152000 32008KT P6SM FEW120
     FM160300 15006KT P6SM SKC=



000
FTUS45 KSLC 150906 AAB
TAFSLC
TAF AMD
KSLC 150906Z 1509/1612 15008KT P6SM SCT120
     FM152000 32008KT P6SM FEW150
     FM160300 15006KT P6SM SKC=



000
FTUS45 KSLC 150614 AAA
TAFSLC
TAF AMD
KSLC 150614Z 1506/1612 15006KT P6SM SCT120
      TEMPO 1506/1507 27010G15KT P6SM BKN120
     FM152000 32008KT P6SM FEW150
     FM160300 15006KT P6SM SKC=



000
FTUS45 KSLC 150614 AAA
TAFSLC
TAF AMD
KSLC 150614Z 1506/1612 15006KT P6SM SCT120
      TEMPO 1506/1507 27010G15KT P6SM BKN120
     FM152000 32008KT P6SM FEW150
     FM160300 15006KT P6SM SKC=



000
FTUS45 KSLC 150535
TAFCDC
TAF
KCDC 150535Z 1506/1606 VRB04KT P6SM SKC
     FM151800 24008KT P6SM FEW150
     FM160000 18005KT P6SM SKC=



000
FTUS45 KSLC 150535
TAFSGU
TAF
KSGU 150535Z 1506/1606 VRB05KT P6SM SKC
      AMD LTD TO CLD VIS AND WIND=



000
FTUS45 KSLC 150535
TAFOGD
TAF
KOGD 150535Z 1506/1606 17006KT P6SM FEW150
     FM152000 26007KT P6SM FEW150
     FM160300 17006KT P6SM SKC=



000
FTUS45 KSLC 150535
TAFCDC
TAF
KCDC 150535Z 1506/1606 VRB04KT P6SM SKC
     FM151800 24008KT P6SM FEW150
     FM160000 18005KT P6SM SKC=



000
FTUS45 KSLC 150535
TAFENV
TAF
KENV 150535Z 1506/1606 VRB04KT P6SM SCT150
     FM151500 12005KT P6SM FEW150
      AMD LTD TO CLD VIS AND WIND=



000
FTUS45 KSLC 150535
TAFBCE
TAF
KBCE 150535Z 1506/1606 27005KT P6SM SKC=



000
FTUS45 KSLC 150535
TAFPVU
TAF
KPVU 150535Z 1506/1606 VRB04KT P6SM FEW150
      AMD LTD TO CLD VIS AND WIND=



000
FTUS45 KSLC 150535
TAFSGU
TAF
KSGU 150535Z 1506/1606 VRB05KT P6SM SKC
      AMD LTD TO CLD VIS AND WIND=



000
FTUS45 KSLC 150535
TAFSLC
TAF
KSLC 150535Z 1506/1612 15006KT P6SM SCT120
     FM152000 32008KT P6SM FEW150
     FM160300 15006KT P6SM SKC=



000
FTUS45 KSLC 150535
TAFBCE
TAF
KBCE 150535Z 1506/1606 27005KT P6SM SKC=



000
FTUS45 KSLC 150535
TAFLGU
TAF
KLGU 150535Z 1506/1606 VRB04KT P6SM FEW150=



    US Dept of Commerce
    National Oceanic and Atmospheric Administration
    National Weather Service
    1325 East West Highway
    Silver Spring, MD 20910
    Page Author: NWS Internet Services Team
Disclaimer
Information Quality
Credits
Glossary
Privacy Policy
Freedom of Information Act (FOIA)
About Us
Career Opportunities